sensor_id;sensor_type;location;lat;lon;timestamp;pressure;altitude;pressure_sealevel;temperature;humidity
45941;BME280;31858;46.008;8.978;2023-03-04T00:02:40;94591.84;;;5.89;100.00
45941;BME280;31858;46.008;8.978;2023-03-04T00:12:43;94599.81;;;5.77;100.00
45941;BME280;31858;46.008;8.978;2023-03-04T00:22:45;94601.69;;;5.76;100.00
45941;BME280;31858;46.008;8.978;2023-03-04T00:32:48;94599.47;;;5.78;100.00
45941;BME280;31858;46.008;8.978;2023-03-04T00:42:49;94597.94;;;5.77;100.00
45941;BME280;31858;46.008;8.978;2023-03-04T00:52:52;94602.34;;;5.73;100.00
45941;BME280;31858;46.008;8.978;2023-03-04T01:02:54;94602.84;;;5.63;100.00
45941;BME280;31858;46.008;8.978;2023-03-04T01:12:57;94602.78;;;5.47;100.00
45941;BME280;31858;46.008;8.978;2023-03-04T01:22:58;94586.34;;;5.54;100.00
45941;BME280;31858;46.008;8.978;2023-03-04T01:33:01;94581.38;;;5.37;100.00
45941;BME280;31858;46.008;8.978;2023-03-04T01:43:03;94577.44;;;5.31;100.00
45941;BME280;31858;46.008;8.978;2023-03-04T01:53:09;94571.94;;;5.23;100.00
45941;BME280;31858;46.008;8.978;2023-03-04T02:03:17;94562.91;;;5.24;100.00
45941;BME280;31858;46.008;8.978;2023-03-04T02:13:21;94548.16;;;5.23;100.00
45941;BME280;31858;46.008;8.978;2023-03-04T02:23:27;94546.13;;;5.17;100.00
45941;BME280;31858;46.008;8.978;2023-03-04T02:33:32;94532.31;;;5.08;100.00
45941;BME280;31858;46.008;8.978;2023-03-04T02:43:33;94523.06;;;5.02;100.00
45941;BME280;31858;46.008;8.978;2023-03-04T02:53:36;94520.88;;;5.04;100.00
45941;BME280;31858;46.008;8.978;2023-03-04T03:03:38;94517.47;;;5.03;100.00
45941;BME280;31858;46.008;8.978;2023-03-04T03:13:41;94505.97;;;5.11;100.00
45941;BME280;31858;46.008;8.978;2023-03-04T03:23:43;94505.94;;;4.96;100.00
45941;BME280;31858;46.008;8.978;2023-03-04T03:33:46;94504.06;;;4.96;100.00
45941;BME280;31858;46.008;8.978;2023-03-04T03:43:47;94500.31;;;4.97;100.00
45941;BME280;31858;46.008;8.978;2023-03-04T03:53:50;94496.19;;;4.84;100.00
45941;BME280;31858;46.008;8.978;2023-03-04T04:03:52;94493.78;;;4.79;100.00
45941;BME280;31858;46.008;8.978;2023-03-04T04:13:54;94495.88;;;4.73;100.00
45941;BME280;31858;46.008;8.978;2023-03-04T04:23:56;94493.31;;;4.89;100.00
45941;BME280;31858;46.008;8.978;2023-03-04T04:33:59;94488.16;;;4.80;100.00
45941;BME280;31858;46.008;8.978;2023-03-04T04:44:00;94489.72;;;4.69;100.00
45941;BME280;31858;46.008;8.978;2023-03-04T04:54:04;94483.50;;;4.62;100.00
45941;BME280;31858;46.008;8.978;2023-03-04T05:04:06;94479.06;;;4.66;100.00
45941;BME280;31858;46.008;8.978;2023-03-04T05:14:09;94482.09;;;4.52;100.00
45941;BME280;31858;46.008;8.978;2023-03-04T05:24:11;94474.25;;;4.55;100.00
45941;BME280;31858;46.008;8.978;2023-03-04T05:34:14;94476.59;;;4.45;100.00
45941;BME280;31858;46.008;8.978;2023-03-04T05:44:16;94472.97;;;4.37;100.00
45941;BME280;31858;46.008;8.978;2023-03-04T05:54:19;94478.50;;;4.32;100.00
45941;BME280;31858;46.008;8.978;2023-03-04T06:04:20;94477.94;;;4.26;100.00
45941;BME280;31858;46.008;8.978;2023-03-04T06:14:23;94481.91;;;4.33;100.00
45941;BME280;31858;46.008;8.978;2023-03-04T06:24:25;94491.25;;;4.30;100.00
45941;BME280;31858;46.008;8.978;2023-03-04T06:34:28;94491.00;;;4.35;100.00
45941;BME280;31858;46.008;8.978;2023-03-04T06:44:30;94499.69;;;4.36;100.00
45941;BME280;31858;46.008;8.978;2023-03-04T06:54:33;94502.66;;;4.34;100.00
45941;BME280;31858;46.008;8.978;2023-03-04T07:04:35;94506.81;;;4.59;100.00
45941;BME280;31858;46.008;8.978;2023-03-04T07:14:38;94515.19;;;4.49;100.00
45941;BME280;31858;46.008;8.978;2023-03-04T07:24:39;94524.66;;;4.26;100.00
45941;BME280;31858;46.008;8.978;2023-03-04T07:34:43;94524.22;;;4.24;100.00
45941;BME280;31858;46.008;8.978;2023-03-04T07:44:44;94521.25;;;4.13;100.00
45941;BME280;31858;46.008;8.978;2023-03-04T07:54:47;94520.91;;;4.15;100.00
45941;BME280;31858;46.008;8.978;2023-03-04T08:04:49;94516.53;;;4.07;100.00
45941;BME280;31858;46.008;8.978;2023-03-04T08:14:52;94519.28;;;4.10;100.00
45941;BME280;31858;46.008;8.978;2023-03-04T08:24:53;94506.94;;;4.39;100.00
45941;BME280;31858;46.008;8.978;2023-03-04T08:34:56;94502.44;;;4.39;100.00
45941;BME280;31858;46.008;8.978;2023-03-04T08:44:58;94504.69;;;4.65;100.00
45941;BME280;31858;46.008;8.978;2023-03-04T08:55:01;94500.50;;;4.76;100.00
45941;BME280;31858;46.008;8.978;2023-03-04T09:05:03;94495.44;;;5.27;100.00
45941;BME280;31858;46.008;8.978;2023-03-04T09:15:07;94488.03;;;5.17;100.00
45941;BME280;31858;46.008;8.978;2023-03-04T09:25:10;94475.09;;;5.59;100.00
45941;BME280;31858;46.008;8.978;2023-03-04T09:35:15;94471.13;;;5.97;100.00
45941;BME280;31858;46.008;8.978;2023-03-04T09:45:20;94471.38;;;6.07;100.00
45941;BME280;31858;46.008;8.978;2023-03-04T09:55:28;94470.06;;;6.17;100.00
45941;BME280;31858;46.008;8.978;2023-03-04T10:05:33;94456.19;;;6.39;100.00
45941;BME280;31858;46.008;8.978;2023-03-04T10:15:39;94450.34;;;6.69;100.00
45941;BME280;31858;46.008;8.978;2023-03-04T10:25:44;94447.72;;;6.88;100.00
45941;BME280;31858;46.008;8.978;2023-03-04T10:35:51;94444.97;;;7.46;100.00
45941;BME280;31858;46.008;8.978;2023-03-04T10:45:55;94428.56;;;7.86;100.00
45941;BME280;31858;46.008;8.978;2023-03-04T10:55:59;94423.38;;;8.19;100.00
45941;BME280;31858;46.008;8.978;2023-03-04T11:06:09;94420.22;;;8.37;100.00
45941;BME280;31858;46.008;8.978;2023-03-04T11:16:24;94421.00;;;8.67;100.00
45941;BME280;31858;46.008;8.978;2023-03-04T11:26:29;94406.22;;;9.03;100.00
45941;BME280;31858;46.008;8.978;2023-03-04T11:36:39;94392.78;;;9.30;100.00
45941;BME280;31858;46.008;8.978;2023-03-04T11:47:11;94374.31;;;9.44;100.00
45941;BME280;31858;46.008;8.978;2023-03-04T11:57:30;94344.81;;;9.63;100.00
45941;BME280;31858;46.008;8.978;2023-03-04T12:08:04;94326.81;;;10.01;99.89
45941;BME280;31858;46.008;8.978;2023-03-04T12:18:21;94312.56;;;10.34;100.00
45941;BME280;31858;46.008;8.978;2023-03-04T12:28:37;94297.84;;;10.75;100.00
45941;BME280;31858;46.008;8.978;2023-03-04T12:38:56;94281.50;;;10.98;91.91
45941;BME280;31858;46.008;8.978;2023-03-04T12:49:23;94262.06;;;10.94;94.19
45941;BME280;31858;46.008;8.978;2023-03-04T12:59:31;94255.63;;;11.27;96.35
45941;BME280;31858;46.008;8.978;2023-03-04T13:09:41;94241.50;;;11.27;87.60
45941;BME280;31858;46.008;8.978;2023-03-04T13:19:50;94239.53;;;11.73;84.28
45941;BME280;31858;46.008;8.978;2023-03-04T13:29:52;94229.56;;;11.99;77.59
45941;BME280;31858;46.008;8.978;2023-03-04T13:40:28;94219.25;;;12.01;76.28
45941;BME280;31858;46.008;8.978;2023-03-04T13:50:37;94212.38;;;12.03;78.57
45941;BME280;31858;46.008;8.978;2023-03-04T14:00:48;94208.16;;;12.13;72.23
45941;BME280;31858;46.008;8.978;2023-03-04T14:10:54;94203.44;;;12.38;72.61
45941;BME280;31858;46.008;8.978;2023-03-04T14:20:58;94192.09;;;12.20;71.80
45941;BME280;31858;46.008;8.978;2023-03-04T14:31:00;94189.63;;;12.51;70.37
45941;BME280;31858;46.008;8.978;2023-03-04T14:41:05;94166.41;;;12.40;71.98
45941;BME280;31858;46.008;8.978;2023-03-04T14:51:30;94159.81;;;12.56;70.80
45941;BME280;31858;46.008;8.978;2023-03-04T15:01:34;94150.69;;;12.53;69.02
45941;BME280;31858;46.008;8.978;2023-03-04T15:11:45;94149.31;;;12.27;72.13
45941;BME280;31858;46.008;8.978;2023-03-04T15:21:48;94146.63;;;12.31;70.87
45941;BME280;31858;46.008;8.978;2023-03-04T15:31:50;94139.78;;;12.26;74.08
45941;BME280;31858;46.008;8.978;2023-03-04T15:41:53;94142.16;;;12.10;78.30
45941;BME280;31858;46.008;8.978;2023-03-04T15:51:55;94135.31;;;12.05;78.18
45941;BME280;31858;46.008;8.978;2023-03-04T16:01:58;94130.47;;;11.83;78.91
45941;BME280;31858;46.008;8.978;2023-03-04T16:11:59;94126.66;;;11.76;79.48
45941;BME280;31858;46.008;8.978;2023-03-04T16:22:02;94121.44;;;11.48;82.79
45941;BME280;31858;46.008;8.978;2023-03-04T16:32:04;94120.75;;;11.23;82.99
45941;BME280;31858;46.008;8.978;2023-03-04T16:42:12;94127.66;;;10.99;88.46
45941;BME280;31858;46.008;8.978;2023-03-04T16:52:22;94131.84;;;10.68;92.19
45941;BME280;31858;46.008;8.978;2023-03-04T17:02:28;94133.75;;;10.35;98.76
45941;BME280;31858;46.008;8.978;2023-03-04T17:12:29;94146.63;;;10.12;100.00
45941;BME280;31858;46.008;8.978;2023-03-04T17:22:33;94151.88;;;9.87;100.00
45941;BME280;31858;46.008;8.978;2023-03-04T17:32:35;94161.69;;;9.72;100.00
45941;BME280;31858;46.008;8.978;2023-03-04T17:42:39;94159.00;;;9.65;100.00
45941;BME280;31858;46.008;8.978;2023-03-04T17:52:41;94156.63;;;9.46;100.00
45941;BME280;31858;46.008;8.978;2023-03-04T18:02:44;94160.09;;;9.57;100.00
45941;BME280;31858;46.008;8.978;2023-03-04T18:12:45;94154.28;;;9.34;100.00
45941;BME280;31858;46.008;8.978;2023-03-04T18:22:49;94161.88;;;9.32;100.00
45941;BME280;31858;46.008;8.978;2023-03-04T18:32:50;94161.75;;;9.10;100.00
45941;BME280;31858;46.008;8.978;2023-03-04T18:42:53;94159.97;;;9.29;100.00
45941;BME280;31858;46.008;8.978;2023-03-04T18:52:55;94157.31;;;9.32;100.00
45941;BME280;31858;46.008;8.978;2023-03-04T19:03:01;94161.31;;;8.98;100.00
45941;BME280;31858;46.008;8.978;2023-03-04T19:13:04;94163.09;;;8.83;100.00
45941;BME280;31858;46.008;8.978;2023-03-04T19:23:07;94150.91;;;8.75;100.00
45941;BME280;31858;46.008;8.978;2023-03-04T19:33:09;94160.69;;;8.64;100.00
45941;BME280;31858;46.008;8.978;2023-03-04T19:43:12;94167.28;;;8.40;100.00
45941;BME280;31858;46.008;8.978;2023-03-04T19:53:14;94167.66;;;8.38;100.00
45941;BME280;31858;46.008;8.978;2023-03-04T20:03:19;94173.97;;;8.27;100.00
45941;BME280;31858;46.008;8.978;2023-03-04T20:13:20;94176.34;;;8.02;100.00
45941;BME280;31858;46.008;8.978;2023-03-04T20:23:23;94172.47;;;7.92;100.00
45941;BME280;31858;46.008;8.978;2023-03-04T20:33:25;94174.28;;;7.84;100.00
45941;BME280;31858;46.008;8.978;2023-03-04T20:43:28;94176.06;;;7.73;100.00
45941;BME280;31858;46.008;8.978;2023-03-04T20:53:30;94180.03;;;7.57;100.00
45941;BME280;31858;46.008;8.978;2023-03-04T21:03:33;94172.06;;;7.57;100.00
45941;BME280;31858;46.008;8.978;2023-03-04T21:13:34;94170.19;;;7.57;100.00
45941;BME280;31858;46.008;8.978;2023-03-04T21:23:38;94178.13;;;7.57;100.00
45941;BME280;31858;46.008;8.978;2023-03-04T21:33:39;94169.81;;;7.29;100.00
45941;BME280;31858;46.008;8.978;2023-03-04T21:43:43;94171.19;;;7.45;100.00
45941;BME280;31858;46.008;8.978;2023-03-04T21:53:45;94169.44;;;7.57;100.00
45941;BME280;31858;46.008;8.978;2023-03-04T22:03:47;94170.50;;;7.52;100.00
45941;BME280;31858;46.008;8.978;2023-03-04T22:13:51;94166.50;;;7.35;100.00
45941;BME280;31858;46.008;8.978;2023-03-04T22:23:55;94157.19;;;7.18;100.00
45941;BME280;31858;46.008;8.978;2023-03-04T22:33:57;94163.81;;;7.05;100.00
45941;BME280;31858;46.008;8.978;2023-03-04T22:44:00;94160.97;;;6.91;100.00
45941;BME280;31858;46.008;8.978;2023-03-04T22:54:02;94153.94;;;7.02;100.00
45941;BME280;31858;46.008;8.978;2023-03-04T23:04:06;94147.94;;;7.05;100.00
45941;BME280;31858;46.008;8.978;2023-03-04T23:14:08;94146.66;;;6.96;100.00
45941;BME280;31858;46.008;8.978;2023-03-04T23:24:12;94155.97;;;6.86;100.00
45941;BME280;31858;46.008;8.978;2023-03-04T23:34:14;94150.50;;;6.75;85.10
45941;BME280;31858;46.008;8.978;2023-03-04T23:44:17;94139.88;;;6.72;73.43
45941;BME280;31858;46.008;8.978;2023-03-04T23:54:19;94138.94;;;6.61;72.39
